Pagrindinis puslapis
METAR-TAF:

METAR-TAF

Oro uostai :

White Mountain, Aliaska, Jungtinės Amerikos Valstijos

platuma: 64-41-21N, ilguma: 163-24-46W, Aukštis: 81 m

Dabartinis oras

Ataskaita buvo paskelbta 46 minutes, ne 22:56 UTC
Vėjas 4 kt iš Pietvakarių
Temperatūra 10°C
Drėgmė 76%
Slėgis 1017 hPa
Matomumas: 16.1 km
Mažai debesys ne aukštis 1500 ft
Išsisklaidę debesys ne aukštis 2700 ft
Apsiniaukę ne aukštis 3500 ft

METAR: PAWM 052256Z AUTO 23004KT 10SM FEW015 SCT027 OVC035 10/06 A3002 RMK AO2 RAB27E41 SLP170 T01000061 PNO $

Laikas: 15:42 (23:42 UTC)


TAF: trūkstamas

Orai ataskaitas ir orų prognozės (METAR, TAF).

turimą stotys yra geltonos ir raudonos taškus žemėlapyje.

Perkelti pele per norėdami pamatyti stoties vardą.

Tada spustelėkite, norėdami matyti oro stebėjimo ir prognozės.

Norėdami pakeisti žemėlapį: spustelėkite ant žalios mygtukų su juodo kryžiaus žemyn,; žalią mygtuką su brūkšneliu, jei norite nutolinti; arba žalių rodyklių gretimoms žemėlapius.


METAR-TAF: